sensor_id;sensor_type;location;lat;lon;timestamp;P1;durP1;ratioP1;P2;durP2;ratioP2
16262;SDS011;8239;48.594;8.598;2022-12-18T00:02:02;16.20;;;8.05;;
16262;SDS011;8239;48.594;8.598;2022-12-18T00:04:29;15.65;;;7.65;;
16262;SDS011;8239;48.594;8.598;2022-12-18T00:06:56;17.65;;;7.70;;
16262;SDS011;8239;48.594;8.598;2022-12-18T00:09:23;18.27;;;8.25;;
16262;SDS011;8239;48.594;8.598;2022-12-18T00:11:50;16.00;;;7.37;;
16262;SDS011;8239;48.594;8.598;2022-12-18T00:14:19;16.63;;;7.47;;
16262;SDS011;8239;48.594;8.598;2022-12-18T00:16:46;15.88;;;7.68;;
16262;SDS011;8239;48.594;8.598;2022-12-18T00:19:13;15.48;;;7.47;;
16262;SDS011;8239;48.594;8.598;2022-12-18T00:21:41;14.75;;;6.95;;
16262;SDS011;8239;48.594;8.598;2022-12-18T00:24:09;16.85;;;7.32;;
16262;SDS011;8239;48.594;8.598;2022-12-18T00:26:37;13.52;;;6.80;;
16262;SDS011;8239;48.594;8.598;2022-12-18T00:29:06;16.05;;;7.50;;
16262;SDS011;8239;48.594;8.598;2022-12-18T00:31:36;15.35;;;7.03;;
16262;SDS011;8239;48.594;8.598;2022-12-18T00:34:03;21.65;;;8.63;;
16262;SDS011;8239;48.594;8.598;2022-12-18T00:36:31;38.38;;;14.43;;
16262;SDS011;8239;48.594;8.598;2022-12-18T00:38:59;22.80;;;10.60;;
16262;SDS011;8239;48.594;8.598;2022-12-18T00:41:28;19.98;;;8.35;;
16262;SDS011;8239;48.594;8.598;2022-12-18T00:44:13;15.98;;;7.65;;
16262;SDS011;8239;48.594;8.598;2022-12-18T00:46:43;14.50;;;7.63;;
16262;SDS011;8239;48.594;8.598;2022-12-18T00:49:11;15.05;;;7.35;;
16262;SDS011;8239;48.594;8.598;2022-12-18T00:51:38;17.33;;;7.57;;
16262;SDS011;8239;48.594;8.598;2022-12-18T00:54:05;20.88;;;8.70;;
16262;SDS011;8239;48.594;8.598;2022-12-18T00:56:32;21.85;;;9.50;;
16262;SDS011;8239;48.594;8.598;2022-12-18T00:59:01;19.50;;;8.23;;
16262;SDS011;8239;48.594;8.598;2022-12-18T01:01:28;17.35;;;7.07;;
16262;SDS011;8239;48.594;8.598;2022-12-18T01:03:59;16.88;;;7.38;;
16262;SDS011;8239;48.594;8.598;2022-12-18T01:06:26;17.42;;;7.63;;
16262;SDS011;8239;48.594;8.598;2022-12-18T01:08:53;15.57;;;7.30;;
16262;SDS011;8239;48.594;8.598;2022-12-18T01:11:21;16.27;;;7.50;;
16262;SDS011;8239;48.594;8.598;2022-12-18T01:13:49;16.08;;;7.35;;
16262;SDS011;8239;48.594;8.598;2022-12-18T01:16:16;16.42;;;7.30;;
16262;SDS011;8239;48.594;8.598;2022-12-18T01:18:43;16.23;;;7.32;;
16262;SDS011;8239;48.594;8.598;2022-12-18T01:21:16;13.73;;;6.53;;
16262;SDS011;8239;48.594;8.598;2022-12-18T01:23:43;16.95;;;7.28;;
16262;SDS011;8239;48.594;8.598;2022-12-18T01:26:12;16.27;;;7.15;;
16262;SDS011;8239;48.594;8.598;2022-12-18T01:28:40;15.80;;;7.05;;
16262;SDS011;8239;48.594;8.598;2022-12-18T01:31:09;19.15;;;7.47;;
16262;SDS011;8239;48.594;8.598;2022-12-18T01:33:37;17.07;;;7.37;;
16262;SDS011;8239;48.594;8.598;2022-12-18T01:36:04;10.97;;;6.60;;
16262;SDS011;8239;48.594;8.598;2022-12-18T01:38:33;13.30;;;7.10;;
16262;SDS011;8239;48.594;8.598;2022-12-18T01:41:01;17.58;;;7.20;;
16262;SDS011;8239;48.594;8.598;2022-12-18T01:43:45;19.17;;;7.60;;
16262;SDS011;8239;48.594;8.598;2022-12-18T01:46:17;14.37;;;6.40;;
16262;SDS011;8239;48.594;8.598;2022-12-18T01:48:45;14.35;;;6.47;;
16262;SDS011;8239;48.594;8.598;2022-12-18T01:51:14;15.23;;;6.70;;
16262;SDS011;8239;48.594;8.598;2022-12-18T01:53:44;15.27;;;6.97;;
16262;SDS011;8239;48.594;8.598;2022-12-18T01:56:13;14.40;;;6.50;;
16262;SDS011;8239;48.594;8.598;2022-12-18T01:58:44;13.73;;;6.75;;
16262;SDS011;8239;48.594;8.598;2022-12-18T02:01:17;18.80;;;7.68;;
16262;SDS011;8239;48.594;8.598;2022-12-18T02:03:46;14.17;;;6.83;;
16262;SDS011;8239;48.594;8.598;2022-12-18T02:06:13;12.43;;;5.93;;
16262;SDS011;8239;48.594;8.598;2022-12-18T02:08:47;13.70;;;5.73;;
16262;SDS011;8239;48.594;8.598;2022-12-18T02:11:25;12.90;;;6.20;;
16262;SDS011;8239;48.594;8.598;2022-12-18T02:14:00;13.88;;;6.03;;
16262;SDS011;8239;48.594;8.598;2022-12-18T02:16:38;10.82;;;5.60;;
16262;SDS011;8239;48.594;8.598;2022-12-18T02:19:14;9.73;;;4.70;;
16262;SDS011;8239;48.594;8.598;2022-12-18T02:21:56;13.17;;;5.10;;
16262;SDS011;8239;48.594;8.598;2022-12-18T02:24:35;10.83;;;5.30;;
16262;SDS011;8239;48.594;8.598;2022-12-18T02:27:09;10.27;;;4.70;;
16262;SDS011;8239;48.594;8.598;2022-12-18T02:29:38;10.93;;;5.70;;
16262;SDS011;8239;48.594;8.598;2022-12-18T02:32:08;9.63;;;5.03;;
16262;SDS011;8239;48.594;8.598;2022-12-18T02:34:39;9.43;;;5.20;;
16262;SDS011;8239;48.594;8.598;2022-12-18T02:37:07;13.30;;;5.43;;
16262;SDS011;8239;48.594;8.598;2022-12-18T02:39:38;14.97;;;5.50;;
16262;SDS011;8239;48.594;8.598;2022-12-18T02:42:06;10.60;;;5.15;;
16262;SDS011;8239;48.594;8.598;2022-12-18T02:44:35;11.07;;;5.73;;
16262;SDS011;8239;48.594;8.598;2022-12-18T02:47:08;12.10;;;5.57;;
16262;SDS011;8239;48.594;8.598;2022-12-18T02:49:40;11.17;;;5.50;;
16262;SDS011;8239;48.594;8.598;2022-12-18T02:52:17;11.33;;;5.10;;
16262;SDS011;8239;48.594;8.598;2022-12-18T02:54:56;10.35;;;5.00;;
16262;SDS011;8239;48.594;8.598;2022-12-18T02:57:32;11.73;;;5.15;;
16262;SDS011;8239;48.594;8.598;2022-12-18T03:00:03;13.32;;;5.53;;
16262;SDS011;8239;48.594;8.598;2022-12-18T03:02:35;10.77;;;5.03;;
16262;SDS011;8239;48.594;8.598;2022-12-18T03:05:10;9.40;;;4.77;;
16262;SDS011;8239;48.594;8.598;2022-12-18T03:07:42;11.32;;;4.97;;
16262;SDS011;8239;48.594;8.598;2022-12-18T03:10:14;10.90;;;4.63;;
16262;SDS011;8239;48.594;8.598;2022-12-18T03:12:49;9.63;;;5.00;;
16262;SDS011;8239;48.594;8.598;2022-12-18T03:15:21;10.85;;;5.68;;
16262;SDS011;8239;48.594;8.598;2022-12-18T03:17:52;15.52;;;5.53;;
16262;SDS011;8239;48.594;8.598;2022-12-18T03:20:23;10.35;;;5.00;;
16262;SDS011;8239;48.594;8.598;2022-12-18T03:22:52;14.45;;;5.78;;
16262;SDS011;8239;48.594;8.598;2022-12-18T03:25:22;12.07;;;5.03;;
16262;SDS011;8239;48.594;8.598;2022-12-18T03:27:53;12.20;;;5.03;;
16262;SDS011;8239;48.594;8.598;2022-12-18T03:30:22;8.73;;;5.32;;
16262;SDS011;8239;48.594;8.598;2022-12-18T03:32:52;12.23;;;4.90;;
16262;SDS011;8239;48.594;8.598;2022-12-18T03:35:24;11.70;;;5.10;;
16262;SDS011;8239;48.594;8.598;2022-12-18T03:37:54;13.13;;;5.05;;
16262;SDS011;8239;48.594;8.598;2022-12-18T03:40:23;12.50;;;5.47;;
16262;SDS011;8239;48.594;8.598;2022-12-18T03:42:58;10.90;;;5.10;;
16262;SDS011;8239;48.594;8.598;2022-12-18T03:45:31;10.52;;;5.07;;
16262;SDS011;8239;48.594;8.598;2022-12-18T03:48:02;13.13;;;5.40;;
16262;SDS011;8239;48.594;8.598;2022-12-18T03:50:36;11.40;;;5.07;;
16262;SDS011;8239;48.594;8.598;2022-12-18T03:53:14;13.18;;;5.40;;
16262;SDS011;8239;48.594;8.598;2022-12-18T03:55:49;12.23;;;4.75;;
16262;SDS011;8239;48.594;8.598;2022-12-18T03:58:20;10.40;;;4.57;;
16262;SDS011;8239;48.594;8.598;2022-12-18T04:00:51;9.75;;;4.65;;
16262;SDS011;8239;48.594;8.598;2022-12-18T04:03:21;10.70;;;4.70;;
16262;SDS011;8239;48.594;8.598;2022-12-18T04:05:50;9.43;;;4.57;;
16262;SDS011;8239;48.594;8.598;2022-12-18T04:08:19;11.73;;;5.20;;
16262;SDS011;8239;48.594;8.598;2022-12-18T04:10:47;10.60;;;5.05;;
16262;SDS011;8239;48.594;8.598;2022-12-18T04:13:22;11.43;;;5.40;;
16262;SDS011;8239;48.594;8.598;2022-12-18T04:15:50;10.25;;;5.20;;
16262;SDS011;8239;48.594;8.598;2022-12-18T04:18:17;9.52;;;5.20;;
16262;SDS011;8239;48.594;8.598;2022-12-18T04:20:44;9.70;;;5.15;;
16262;SDS011;8239;48.594;8.598;2022-12-18T04:23:11;10.48;;;4.88;;
16262;SDS011;8239;48.594;8.598;2022-12-18T04:25:38;14.15;;;5.35;;
16262;SDS011;8239;48.594;8.598;2022-12-18T04:28:05;9.48;;;4.55;;
16262;SDS011;8239;48.594;8.598;2022-12-18T04:30:34;12.40;;;5.07;;
16262;SDS011;8239;48.594;8.598;2022-12-18T04:33:01;13.52;;;5.57;;
16262;SDS011;8239;48.594;8.598;2022-12-18T04:35:28;10.85;;;5.03;;
16262;SDS011;8239;48.594;8.598;2022-12-18T04:37:55;12.07;;;4.78;;
16262;SDS011;8239;48.594;8.598;2022-12-18T04:40:22;10.68;;;5.05;;
16262;SDS011;8239;48.594;8.598;2022-12-18T04:42:49;10.32;;;5.07;;
16262;SDS011;8239;48.594;8.598;2022-12-18T04:45:16;12.43;;;5.20;;
16262;SDS011;8239;48.594;8.598;2022-12-18T04:47:44;8.88;;;4.38;;
16262;SDS011;8239;48.594;8.598;2022-12-18T04:50:11;13.02;;;6.28;;
16262;SDS011;8239;48.594;8.598;2022-12-18T04:52:38;13.40;;;5.90;;
16262;SDS011;8239;48.594;8.598;2022-12-18T04:55:05;14.00;;;6.45;;
16262;SDS011;8239;48.594;8.598;2022-12-18T04:57:32;20.37;;;7.70;;
16262;SDS011;8239;48.594;8.598;2022-12-18T04:59:59;17.93;;;7.10;;
16262;SDS011;8239;48.594;8.598;2022-12-18T05:02:26;19.03;;;7.93;;
16262;SDS011;8239;48.594;8.598;2022-12-18T05:04:54;15.83;;;6.20;;
16262;SDS011;8239;48.594;8.598;2022-12-18T05:07:21;19.07;;;7.77;;
16262;SDS011;8239;48.594;8.598;2022-12-18T05:09:48;15.20;;;7.37;;
16262;SDS011;8239;48.594;8.598;2022-12-18T05:12:15;16.67;;;7.90;;
16262;SDS011;8239;48.594;8.598;2022-12-18T05:14:42;22.00;;;8.40;;
16262;SDS011;8239;48.594;8.598;2022-12-18T05:17:09;18.67;;;7.93;;
16262;SDS011;8239;48.594;8.598;2022-12-18T05:19:36;21.40;;;8.60;;
16262;SDS011;8239;48.594;8.598;2022-12-18T05:22:05;23.60;;;9.57;;
16262;SDS011;8239;48.594;8.598;2022-12-18T05:24:35;21.30;;;8.53;;
16262;SDS011;8239;48.594;8.598;2022-12-18T05:27:02;24.60;;;9.23;;
16262;SDS011;8239;48.594;8.598;2022-12-18T05:29:29;22.90;;;10.20;;
16262;SDS011;8239;48.594;8.598;2022-12-18T05:31:56;25.20;;;9.97;;
16262;SDS011;8239;48.594;8.598;2022-12-18T05:34:23;24.53;;;10.47;;
16262;SDS011;8239;48.594;8.598;2022-12-18T05:36:50;24.77;;;10.00;;
16262;SDS011;8239;48.594;8.598;2022-12-18T05:39:18;26.53;;;11.13;;
16262;SDS011;8239;48.594;8.598;2022-12-18T05:41:45;25.67;;;10.93;;
16262;SDS011;8239;48.594;8.598;2022-12-18T05:44:12;19.67;;;8.10;;
16262;SDS011;8239;48.594;8.598;2022-12-18T05:46:39;21.03;;;8.77;;
16262;SDS011;8239;48.594;8.598;2022-12-18T05:49:09;32.40;;;11.77;;
16262;SDS011;8239;48.594;8.598;2022-12-18T05:51:36;27.57;;;10.33;;
16262;SDS011;8239;48.594;8.598;2022-12-18T05:54:02;22.23;;;9.23;;
16262;SDS011;8239;48.594;8.598;2022-12-18T05:56:31;25.50;;;9.27;;
16262;SDS011;8239;48.594;8.598;2022-12-18T05:58:58;22.83;;;9.60;;
16262;SDS011;8239;48.594;8.598;2022-12-18T06:01:25;31.23;;;11.20;;
16262;SDS011;8239;48.594;8.598;2022-12-18T06:03:53;28.07;;;10.73;;
16262;SDS011;8239;48.594;8.598;2022-12-18T06:06:22;28.50;;;10.83;;
16262;SDS011;8239;48.594;8.598;2022-12-18T06:08:50;23.97;;;8.93;;
16262;SDS011;8239;48.594;8.598;2022-12-18T06:11:18;37.03;;;12.30;;
16262;SDS011;8239;48.594;8.598;2022-12-18T06:13:49;29.03;;;10.70;;
16262;SDS011;8239;48.594;8.598;2022-12-18T06:16:16;31.23;;;11.73;;
16262;SDS011;8239;48.594;8.598;2022-12-18T06:18:43;32.20;;;11.63;;
16262;SDS011;8239;48.594;8.598;2022-12-18T06:21:10;29.10;;;11.37;;
16262;SDS011;8239;48.594;8.598;2022-12-18T06:23:37;30.87;;;11.20;;
16262;SDS011;8239;48.594;8.598;2022-12-18T06:26:04;32.43;;;12.00;;
16262;SDS011;8239;48.594;8.598;2022-12-18T06:28:32;21.77;;;9.30;;
16262;SDS011;8239;48.594;8.598;2022-12-18T06:31:00;21.20;;;9.70;;
16262;SDS011;8239;48.594;8.598;2022-12-18T06:33:29;22.27;;;9.20;;
16262;SDS011;8239;48.594;8.598;2022-12-18T06:35:59;20.73;;;8.93;;
16262;SDS011;8239;48.594;8.598;2022-12-18T06:38:27;25.17;;;9.70;;
16262;SDS011;8239;48.594;8.598;2022-12-18T06:40:54;18.73;;;8.40;;
16262;SDS011;8239;48.594;8.598;2022-12-18T06:43:21;20.40;;;8.73;;
16262;SDS011;8239;48.594;8.598;2022-12-18T06:45:48;22.97;;;9.10;;
16262;SDS011;8239;48.594;8.598;2022-12-18T06:48:19;36.97;;;18.77;;
16262;SDS011;8239;48.594;8.598;2022-12-18T06:50:46;25.07;;;11.43;;
16262;SDS011;8239;48.594;8.598;2022-12-18T06:53:13;23.27;;;10.13;;
16262;SDS011;8239;48.594;8.598;2022-12-18T06:55:40;26.40;;;9.93;;
16262;SDS011;8239;48.594;8.598;2022-12-18T06:58:07;23.30;;;9.50;;
16262;SDS011;8239;48.594;8.598;2022-12-18T07:00:34;19.60;;;8.67;;
16262;SDS011;8239;48.594;8.598;2022-12-18T07:03:01;23.80;;;10.00;;
16262;SDS011;8239;48.594;8.598;2022-12-18T07:05:29;26.70;;;11.27;;
16262;SDS011;8239;48.594;8.598;2022-12-18T07:07:57;28.30;;;11.40;;
16262;SDS011;8239;48.594;8.598;2022-12-18T07:10:24;25.37;;;10.77;;
16262;SDS011;8239;48.594;8.598;2022-12-18T07:12:51;20.30;;;9.77;;
16262;SDS011;8239;48.594;8.598;2022-12-18T07:15:18;22.70;;;9.57;;
16262;SDS011;8239;48.594;8.598;2022-12-18T07:17:45;24.00;;;9.43;;
16262;SDS011;8239;48.594;8.598;2022-12-18T07:20:11;24.83;;;9.83;;
16262;SDS011;8239;48.594;8.598;2022-12-18T07:22:40;36.17;;;14.47;;
16262;SDS011;8239;48.594;8.598;2022-12-18T07:25:07;26.17;;;11.00;;
16262;SDS011;8239;48.594;8.598;2022-12-18T07:27:34;55.67;;;20.50;;
16262;SDS011;8239;48.594;8.598;2022-12-18T07:30:01;52.20;;;21.53;;
16262;SDS011;8239;48.594;8.598;2022-12-18T07:32:28;47.70;;;19.77;;
16262;SDS011;8239;48.594;8.598;2022-12-18T07:34:56;41.57;;;16.87;;
16262;SDS011;8239;48.594;8.598;2022-12-18T07:37:23;36.43;;;14.33;;
16262;SDS011;8239;48.594;8.598;2022-12-18T07:39:52;28.87;;;11.53;;
16262;SDS011;8239;48.594;8.598;2022-12-18T07:42:19;28.97;;;11.90;;
16262;SDS011;8239;48.594;8.598;2022-12-18T07:44:58;28.73;;;12.00;;
16262;SDS011;8239;48.594;8.598;2022-12-18T07:47:26;29.87;;;11.80;;
16262;SDS011;8239;48.594;8.598;2022-12-18T07:49:54;34.77;;;13.57;;
16262;SDS011;8239;48.594;8.598;2022-12-18T07:52:21;59.17;;;26.03;;
16262;SDS011;8239;48.594;8.598;2022-12-18T07:54:48;48.87;;;22.63;;
16262;SDS011;8239;48.594;8.598;2022-12-18T07:57:16;59.90;;;26.43;;
16262;SDS011;8239;48.594;8.598;2022-12-18T07:59:44;30.27;;;11.40;;
16262;SDS011;8239;48.594;8.598;2022-12-18T08:02:11;39.90;;;14.87;;
16262;SDS011;8239;48.594;8.598;2022-12-18T08:04:38;36.63;;;13.83;;
16262;SDS011;8239;48.594;8.598;2022-12-18T08:07:05;48.17;;;20.57;;
16262;SDS011;8239;48.594;8.598;2022-12-18T08:09:32;39.93;;;15.07;;
16262;SDS011;8239;48.594;8.598;2022-12-18T08:11:59;47.90;;;18.80;;
16262;SDS011;8239;48.594;8.598;2022-12-18T08:14:28;34.83;;;14.37;;
16262;SDS011;8239;48.594;8.598;2022-12-18T08:16:54;38.67;;;14.70;;
16262;SDS011;8239;48.594;8.598;2022-12-18T08:19:21;43.10;;;15.97;;
16262;SDS011;8239;48.594;8.598;2022-12-18T08:21:48;44.13;;;17.10;;
16262;SDS011;8239;48.594;8.598;2022-12-18T08:24:15;42.60;;;16.13;;
16262;SDS011;8239;48.594;8.598;2022-12-18T08:26:43;44.57;;;16.93;;
16262;SDS011;8239;48.594;8.598;2022-12-18T08:29:10;40.57;;;15.67;;
16262;SDS011;8239;48.594;8.598;2022-12-18T08:31:39;42.63;;;16.90;;
16262;SDS011;8239;48.594;8.598;2022-12-18T08:34:07;45.97;;;16.63;;
16262;SDS011;8239;48.594;8.598;2022-12-18T08:36:34;45.20;;;17.53;;
16262;SDS011;8239;48.594;8.598;2022-12-18T08:39:01;50.90;;;19.40;;
16262;SDS011;8239;48.594;8.598;2022-12-18T08:41:28;49.03;;;18.57;;
16262;SDS011;8239;48.594;8.598;2022-12-18T08:43:55;48.20;;;19.23;;
16262;SDS011;8239;48.594;8.598;2022-12-18T08:46:41;59.47;;;22.47;;
16262;SDS011;8239;48.594;8.598;2022-12-18T08:49:09;52.37;;;19.97;;
16262;SDS011;8239;48.594;8.598;2022-12-18T08:51:37;50.37;;;19.23;;
16262;SDS011;8239;48.594;8.598;2022-12-18T08:54:04;56.33;;;20.80;;
16262;SDS011;8239;48.594;8.598;2022-12-18T08:56:32;48.40;;;18.40;;
16262;SDS011;8239;48.594;8.598;2022-12-18T08:58:59;39.23;;;14.60;;
16262;SDS011;8239;48.594;8.598;2022-12-18T09:01:26;50.03;;;18.87;;
16262;SDS011;8239;48.594;8.598;2022-12-18T09:03:54;67.60;;;26.33;;
16262;SDS011;8239;48.594;8.598;2022-12-18T09:06:22;55.23;;;21.03;;
16262;SDS011;8239;48.594;8.598;2022-12-18T09:08:50;50.77;;;20.07;;
16262;SDS011;8239;48.594;8.598;2022-12-18T09:11:19;45.77;;;17.20;;
16262;SDS011;8239;48.594;8.598;2022-12-18T09:13:48;52.40;;;20.73;;
16262;SDS011;8239;48.594;8.598;2022-12-18T09:16:15;46.53;;;19.50;;
16262;SDS011;8239;48.594;8.598;2022-12-18T09:18:43;48.43;;;18.90;;
16262;SDS011;8239;48.594;8.598;2022-12-18T09:21:12;56.13;;;21.80;;
16262;SDS011;8239;48.594;8.598;2022-12-18T09:23:41;50.90;;;20.43;;
16262;SDS011;8239;48.594;8.598;2022-12-18T09:26:08;50.80;;;20.60;;
16262;SDS011;8239;48.594;8.598;2022-12-18T09:28:35;50.93;;;20.50;;
16262;SDS011;8239;48.594;8.598;2022-12-18T09:31:06;47.23;;;19.10;;
16262;SDS011;8239;48.594;8.598;2022-12-18T09:33:34;50.70;;;18.63;;
16262;SDS011;8239;48.594;8.598;2022-12-18T09:36:02;51.33;;;19.47;;
16262;SDS011;8239;48.594;8.598;2022-12-18T09:38:33;46.07;;;19.10;;
16262;SDS011;8239;48.594;8.598;2022-12-18T09:41:02;51.90;;;19.17;;
16262;SDS011;8239;48.594;8.598;2022-12-18T09:43:40;52.13;;;19.33;;
16262;SDS011;8239;48.594;8.598;2022-12-18T09:46:15;55.20;;;21.10;;
16262;SDS011;8239;48.594;8.598;2022-12-18T09:48:50;45.67;;;18.47;;
16262;SDS011;8239;48.594;8.598;2022-12-18T09:51:19;53.83;;;20.93;;
16262;SDS011;8239;48.594;8.598;2022-12-18T09:53:52;46.90;;;19.33;;
16262;SDS011;8239;48.594;8.598;2022-12-18T09:56:23;49.57;;;18.10;;
16262;SDS011;8239;48.594;8.598;2022-12-18T09:58:53;52.60;;;22.33;;
16262;SDS011;8239;48.594;8.598;2022-12-18T10:01:24;51.67;;;22.93;;
16262;SDS011;8239;48.594;8.598;2022-12-18T10:03:53;48.83;;;21.30;;
16262;SDS011;8239;48.594;8.598;2022-12-18T10:06:22;48.80;;;19.53;;
16262;SDS011;8239;48.594;8.598;2022-12-18T10:08:56;57.77;;;22.87;;
16262;SDS011;8239;48.594;8.598;2022-12-18T10:11:32;50.43;;;21.23;;
16262;SDS011;8239;48.594;8.598;2022-12-18T10:14:08;47.73;;;19.90;;
16262;SDS011;8239;48.594;8.598;2022-12-18T10:16:43;50.33;;;19.93;;
16262;SDS011;8239;48.594;8.598;2022-12-18T10:19:23;49.17;;;19.63;;
16262;SDS011;8239;48.594;8.598;2022-12-18T10:22:05;66.67;;;26.00;;
16262;SDS011;8239;48.594;8.598;2022-12-18T10:24:44;131.87;;;43.43;;
16262;SDS011;8239;48.594;8.598;2022-12-18T10:27:21;44.40;;;17.63;;
16262;SDS011;8239;48.594;8.598;2022-12-18T10:29:50;41.33;;;18.47;;
16262;SDS011;8239;48.594;8.598;2022-12-18T10:32:18;73.77;;;33.70;;
16262;SDS011;8239;48.594;8.598;2022-12-18T10:34:47;110.47;;;37.27;;
16262;SDS011;8239;48.594;8.598;2022-12-18T10:37:16;46.47;;;20.20;;
16262;SDS011;8239;48.594;8.598;2022-12-18T10:39:46;41.27;;;18.37;;
16262;SDS011;8239;48.594;8.598;2022-12-18T10:42:34;45.03;;;20.53;;
16262;SDS011;8239;48.594;8.598;2022-12-18T10:45:01;43.57;;;19.47;;
16262;SDS011;8239;48.594;8.598;2022-12-18T10:47:31;40.53;;;19.33;;
16262;SDS011;8239;48.594;8.598;2022-12-18T10:50:00;37.87;;;19.53;;
16262;SDS011;8239;48.594;8.598;2022-12-18T10:52:28;41.03;;;20.80;;
16262;SDS011;8239;48.594;8.598;2022-12-18T10:54:57;37.20;;;18.80;;
16262;SDS011;8239;48.594;8.598;2022-12-18T10:57:32;37.40;;;19.70;;
16262;SDS011;8239;48.594;8.598;2022-12-18T11:02:49;36.67;;;19.97;;
16262;SDS011;8239;48.594;8.598;2022-12-18T11:05:23;36.10;;;20.77;;
16262;SDS011;8239;48.594;8.598;2022-12-18T11:07:52;34.27;;;19.00;;
16262;SDS011;8239;48.594;8.598;2022-12-18T11:10:22;35.47;;;20.80;;
16262;SDS011;8239;48.594;8.598;2022-12-18T11:12:51;35.70;;;20.50;;
16262;SDS011;8239;48.594;8.598;2022-12-18T11:15:19;35.30;;;19.93;;
16262;SDS011;8239;48.594;8.598;2022-12-18T11:17:47;33.37;;;20.87;;
16262;SDS011;8239;48.594;8.598;2022-12-18T11:20:21;32.93;;;19.73;;
16262;SDS011;8239;48.594;8.598;2022-12-18T11:22:57;34.17;;;19.93;;
16262;SDS011;8239;48.594;8.598;2022-12-18T11:25:30;36.20;;;23.33;;
16262;SDS011;8239;48.594;8.598;2022-12-18T11:27:59;34.53;;;19.37;;
16262;SDS011;8239;48.594;8.598;2022-12-18T11:30:28;32.87;;;20.87;;
16262;SDS011;8239;48.594;8.598;2022-12-18T11:32:57;34.00;;;21.57;;
16262;SDS011;8239;48.594;8.598;2022-12-18T11:35:34;36.90;;;22.23;;
16262;SDS011;8239;48.594;8.598;2022-12-18T11:38:06;31.73;;;20.47;;
16262;SDS011;8239;48.594;8.598;2022-12-18T11:40:44;33.60;;;21.00;;
16262;SDS011;8239;48.594;8.598;2022-12-18T11:43:16;35.43;;;22.50;;
16262;SDS011;8239;48.594;8.598;2022-12-18T11:45:49;34.53;;;22.07;;
16262;SDS011;8239;48.594;8.598;2022-12-18T11:48:21;32.97;;;20.60;;
16262;SDS011;8239;48.594;8.598;2022-12-18T11:50:52;31.53;;;20.50;;
16262;SDS011;8239;48.594;8.598;2022-12-18T11:53:21;37.77;;;22.27;;
16262;SDS011;8239;48.594;8.598;2022-12-18T11:55:52;32.07;;;20.53;;
16262;SDS011;8239;48.594;8.598;2022-12-18T12:01:17;35.30;;;21.20;;
16262;SDS011;8239;48.594;8.598;2022-12-18T12:04:01;31.53;;;20.03;;
16262;SDS011;8239;48.594;8.598;2022-12-18T12:06:54;35.23;;;21.33;;
16262;SDS011;8239;48.594;8.598;2022-12-18T12:09:31;32.90;;;21.17;;
16262;SDS011;8239;48.594;8.598;2022-12-18T12:12:13;34.23;;;21.47;;
16262;SDS011;8239;48.594;8.598;2022-12-18T12:14:53;34.77;;;21.90;;
16262;SDS011;8239;48.594;8.598;2022-12-18T12:17:31;33.23;;;21.43;;
16262;SDS011;8239;48.594;8.598;2022-12-18T12:20:06;36.73;;;22.80;;
16262;SDS011;8239;48.594;8.598;2022-12-18T12:22:43;35.63;;;22.97;;
16262;SDS011;8239;48.594;8.598;2022-12-18T12:25:19;33.47;;;20.67;;
16262;SDS011;8239;48.594;8.598;2022-12-18T12:27:58;35.53;;;21.90;;
16262;SDS011;8239;48.594;8.598;2022-12-18T12:30:38;39.30;;;21.77;;
16262;SDS011;8239;48.594;8.598;2022-12-18T12:33:17;40.50;;;23.07;;
16262;SDS011;8239;48.594;8.598;2022-12-18T12:35:59;37.07;;;22.20;;
16262;SDS011;8239;48.594;8.598;2022-12-18T12:38:34;38.80;;;23.17;;
16262;SDS011;8239;48.594;8.598;2022-12-18T12:41:04;39.63;;;23.20;;
16262;SDS011;8239;48.594;8.598;2022-12-18T12:43:55;38.50;;;22.70;;
16262;SDS011;8239;48.594;8.598;2022-12-18T12:46:26;40.37;;;23.43;;
16262;SDS011;8239;48.594;8.598;2022-12-18T12:48:53;41.97;;;23.70;;
16262;SDS011;8239;48.594;8.598;2022-12-18T12:51:24;40.20;;;24.60;;
16262;SDS011;8239;48.594;8.598;2022-12-18T12:53:57;38.87;;;23.57;;
16262;SDS011;8239;48.594;8.598;2022-12-18T12:56:27;38.17;;;24.00;;
16262;SDS011;8239;48.594;8.598;2022-12-18T12:59:08;40.23;;;23.80;;
16262;SDS011;8239;48.594;8.598;2022-12-18T13:01:40;38.73;;;24.27;;
16262;SDS011;8239;48.594;8.598;2022-12-18T13:04:18;38.67;;;22.60;;
16262;SDS011;8239;48.594;8.598;2022-12-18T13:06:51;37.27;;;22.53;;
16262;SDS011;8239;48.594;8.598;2022-12-18T13:09:24;38.73;;;23.33;;
16262;SDS011;8239;48.594;8.598;2022-12-18T13:11:57;38.33;;;23.30;;
16262;SDS011;8239;48.594;8.598;2022-12-18T13:14:47;41.27;;;24.47;;
16262;SDS011;8239;48.594;8.598;2022-12-18T13:17:15;39.10;;;23.00;;
16262;SDS011;8239;48.594;8.598;2022-12-18T13:20:02;39.70;;;23.10;;
16262;SDS011;8239;48.594;8.598;2022-12-18T13:22:33;41.53;;;23.20;;
16262;SDS011;8239;48.594;8.598;2022-12-18T13:25:02;42.50;;;24.13;;
16262;SDS011;8239;48.594;8.598;2022-12-18T13:28:06;39.50;;;21.33;;
16262;SDS011;8239;48.594;8.598;2022-12-18T13:30:47;41.70;;;22.83;;
16262;SDS011;8239;48.594;8.598;2022-12-18T13:36:14;39.13;;;21.87;;
16262;SDS011;8239;48.594;8.598;2022-12-18T13:41:52;40.53;;;20.67;;
16262;SDS011;8239;48.594;8.598;2022-12-18T13:45:00;39.10;;;20.63;;
16262;SDS011;8239;48.594;8.598;2022-12-18T13:47:31;40.17;;;21.57;;
16262;SDS011;8239;48.594;8.598;2022-12-18T13:50:00;41.07;;;21.67;;
16262;SDS011;8239;48.594;8.598;2022-12-18T13:52:35;44.40;;;23.00;;
16262;SDS011;8239;48.594;8.598;2022-12-18T13:55:06;42.87;;;20.80;;
16262;SDS011;8239;48.594;8.598;2022-12-18T13:57:42;50.57;;;25.13;;
16262;SDS011;8239;48.594;8.598;2022-12-18T14:00:16;57.17;;;26.87;;
16262;SDS011;8239;48.594;8.598;2022-12-18T14:02:54;45.63;;;22.57;;
16262;SDS011;8239;48.594;8.598;2022-12-18T14:05:22;46.73;;;23.73;;
16262;SDS011;8239;48.594;8.598;2022-12-18T14:07:50;56.87;;;26.37;;
16262;SDS011;8239;48.594;8.598;2022-12-18T14:10:18;46.07;;;23.67;;
16262;SDS011;8239;48.594;8.598;2022-12-18T14:12:47;47.23;;;22.30;;
16262;SDS011;8239;48.594;8.598;2022-12-18T14:15:27;42.43;;;21.07;;
16262;SDS011;8239;48.594;8.598;2022-12-18T14:18:00;48.23;;;23.53;;
16262;SDS011;8239;48.594;8.598;2022-12-18T14:20:29;45.67;;;22.63;;
16262;SDS011;8239;48.594;8.598;2022-12-18T14:22:58;51.23;;;25.40;;
16262;SDS011;8239;48.594;8.598;2022-12-18T14:25:26;47.03;;;23.07;;
16262;SDS011;8239;48.594;8.598;2022-12-18T14:28:01;50.67;;;28.10;;
16262;SDS011;8239;48.594;8.598;2022-12-18T14:30:36;51.03;;;26.60;;
16262;SDS011;8239;48.594;8.598;2022-12-18T14:33:08;51.50;;;27.93;;
16262;SDS011;8239;48.594;8.598;2022-12-18T14:35:37;58.10;;;31.93;;
16262;SDS011;8239;48.594;8.598;2022-12-18T14:40:53;50.70;;;26.00;;
16262;SDS011;8239;48.594;8.598;2022-12-18T14:43:25;102.23;;;70.77;;
16262;SDS011;8239;48.594;8.598;2022-12-18T14:45:54;56.30;;;31.07;;
16262;SDS011;8239;48.594;8.598;2022-12-18T14:48:24;52.17;;;25.53;;
16262;SDS011;8239;48.594;8.598;2022-12-18T14:51:03;50.50;;;24.47;;
16262;SDS011;8239;48.594;8.598;2022-12-18T14:53:36;50.93;;;24.60;;
16262;SDS011;8239;48.594;8.598;2022-12-18T14:56:12;49.40;;;24.40;;
16262;SDS011;8239;48.594;8.598;2022-12-18T14:58:45;52.37;;;24.13;;
16262;SDS011;8239;48.594;8.598;2022-12-18T15:01:20;58.63;;;28.57;;
16262;SDS011;8239;48.594;8.598;2022-12-18T15:03:52;56.53;;;28.00;;
16262;SDS011;8239;48.594;8.598;2022-12-18T15:06:27;57.70;;;26.90;;
16262;SDS011;8239;48.594;8.598;2022-12-18T15:08:56;54.83;;;25.33;;
16262;SDS011;8239;48.594;8.598;2022-12-18T15:11:28;59.93;;;26.93;;
16262;SDS011;8239;48.594;8.598;2022-12-18T15:14:00;57.70;;;25.13;;
16262;SDS011;8239;48.594;8.598;2022-12-18T15:16:50;63.00;;;28.87;;